Time;durP1;ratioP1;P1;durP2;ratioP2;P2;SDS_P1;SDS_P2;PMS_P1;PMS_P2;Temp;Humidity;BMP_temperature;BMP_pressure;BME280_temperature;BME280_humidity;BME280_pressure;Samples;Min_cycle;Max_cycle;Signal;HPM_P1;HPM_P2
2023/03/25 00:01:00;;;;;;;9.30;1.88;;;8.80;99.90;;;;;;5031346;28;20044;-41
2023/03/25 00:03:28;;;;;;;4.95;1.15;;;9.40;99.90;;;;;;5065947;28;20126;-40
2023/03/25 00:05:56;;;;;;;10.93;0.82;;;8.80;99.90;;;;;;5066600;28;20093;-39
2023/03/25 00:08:23;;;;;;;7.38;0.98;;;8.60;99.90;;;;;;5066159;28;20474;-39
2023/03/25 00:10:53;;;;;;;5.90;0.95;;;8.90;99.90;;;;;;5066341;28;20055;-39
2023/03/25 00:13:20;;;;;;;9.60;1.40;;;8.70;99.90;;;;;;5065749;28;20151;-39
2023/03/25 00:15:47;;;;;;;6.82;1.42;;;8.60;99.90;;;;;;5066548;28;20629;-39
2023/03/25 00:18:13;;;;;;;7.38;1.88;;;8.60;99.90;;;;;;5065865;28;20051;-39
2023/03/25 00:20:40;;;;;;;14.48;1.15;;;8.90;99.90;;;;;;5066486;28;20139;-39
2023/03/25 00:23:06;;;;;;;8.98;1.83;;;8.50;99.90;;;;;;5066058;28;20129;-39
2023/03/25 00:25:32;;;;;;;10.32;1.42;;;8.50;99.90;;;;;;5065813;28;20102;-39
2023/03/25 00:27:58;;;;;;;11.70;1.40;;;9.00;99.90;;;;;;5065356;28;20539;-38
2023/03/25 00:30:24;;;;;;;10.10;1.00;;;9.40;99.90;;;;;;5065916;28;20036;-39
2023/03/25 00:32:51;;;;;;;11.45;1.75;;;8.70;99.90;;;;;;5065458;28;20163;-39
2023/03/25 00:35:21;;;;;;;6.18;0.85;;;8.70;99.90;;;;;;5065637;28;20040;-39
2023/03/25 00:37:56;;;;;;;8.68;1.65;;;8.70;99.90;;;;;;5065920;28;20062;-39
2023/03/25 00:40:22;;;;;;;10.57;1.50;;;9.40;99.90;;;;;;5066091;28;20041;-39
2023/03/25 00:42:49;;;;;;;12.35;1.00;;;8.80;99.90;;;;;;5065809;28;20076;-39
2023/03/25 00:45:15;;;;;;;13.05;0.90;;;9.00;99.90;;;;;;5065590;28;20493;-39
2023/03/25 00:47:42;;;;;;;9.90;1.05;;;8.80;99.90;;;;;;5066130;28;20394;-39
2023/03/25 00:50:08;;;;;;;8.93;1.02;;;8.90;99.90;;;;;;5065753;28;20044;-39
2023/03/25 00:52:34;;;;;;;10.07;1.10;;;8.80;99.90;;;;;;5065557;28;20052;-39
2023/03/25 00:55:00;;;;;;;9.95;1.52;;;8.90;99.90;;;;;;5065133;28;20032;-39
2023/03/25 00:57:26;;;;;;;11.95;1.00;;;9.10;99.90;;;;;;5068737;28;20130;-39
2023/03/25 00:59:52;;;;;;;9.60;1.00;;;9.10;99.90;;;;;;5069884;28;20119;-38
2023/03/25 01:02:20;;;;;;;12.75;1.95;;;8.90;99.90;;;;;;5069555;28;20040;-40
2023/03/25 01:04:48;;;;;;;10.73;1.35;;;8.90;99.90;;;;;;5070134;28;20040;-38
2023/03/25 01:07:15;;;;;;;12.20;1.70;;;8.50;99.90;;;;;;5069349;28;20094;-39
2023/03/25 01:09:41;;;;;;;10.27;1.13;;;8.20;99.90;;;;;;5051179;28;20048;-39
2023/03/25 01:12:07;;;;;;;9.98;0.90;;;9.00;99.90;;;;;;5069431;28;20048;-39
2023/03/25 01:14:33;;;;;;;7.07;1.27;;;7.90;99.90;;;;;;5068761;28;20051;-39
2023/03/25 01:16:59;;;;;;;8.65;1.35;;;10.10;99.90;;;;;;5068942;28;20040;-39
2023/03/25 01:19:25;;;;;;;6.18;1.10;;;8.20;99.90;;;;;;5069186;28;20056;-39
2023/03/25 01:21:51;;;;;;;11.93;1.55;;;7.80;99.90;;;;;;5068838;28;20044;-39
2023/03/25 01:24:17;;;;;;;10.20;1.17;;;8.70;99.90;;;;;;5068643;28;20056;-39
2023/03/25 01:26:44;;;;;;;19.55;2.03;;;8.50;99.90;;;;;;5068774;28;20458;-39
2023/03/25 01:29:15;;;;;;;13.25;1.50;;;7.70;99.90;;;;;;5068549;28;20102;-39
2023/03/25 01:31:41;;;;;;;12.85;2.03;;;7.50;99.90;;;;;;5068454;28;20119;-39
2023/03/25 01:34:07;;;;;;;11.32;1.58;;;7.60;99.90;;;;;;5068418;28;20135;-39
2023/03/25 01:36:36;;;;;;;11.60;1.45;;;7.60;99.90;;;;;;5069128;28;20064;-39
2023/03/25 01:39:04;;;;;;;17.17;2.55;;;7.40;99.90;;;;;;5068970;28;20445;-39
2023/03/25 01:41:32;;;;;;;16.10;2.08;;;7.40;99.90;;;;;;5069231;28;20047;-39
2023/03/25 01:44:07;;;;;;;12.73;1.65;;;7.60;99.90;;;;;;5068179;28;20110;-39
2023/03/25 01:46:36;;;;;;;11.73;2.00;;;7.30;99.90;;;;;;5069209;28;20089;-39
2023/03/25 01:49:06;;;;;;;16.42;2.50;;;7.20;99.90;;;;;;5068596;28;20127;-39
2023/03/25 01:51:37;;;;;;;13.95;2.65;;;7.60;99.90;;;;;;5068842;28;20041;-39
2023/03/25 01:54:03;;;;;;;15.75;2.47;;;7.50;99.90;;;;;;5068722;28;20032;-39
2023/03/25 01:56:41;;;;;;;9.02;1.92;;;7.30;99.90;;;;;;5068174;28;20041;-39
2023/03/25 01:59:08;;;;;;;9.27;2.35;;;7.60;99.90;;;;;;5068723;28;20045;-39
2023/03/25 02:01:35;;;;;;;14.57;2.17;;;8.30;99.90;;;;;;5068669;28;20039;-39
2023/03/25 02:04:10;;;;;;;13.43;2.70;;;7.50;99.90;;;;;;5068261;28;20052;-38
2023/03/25 02:06:52;;;;;;;14.65;3.92;;;7.50;99.90;;;;;;5068591;28;20482;-41
2023/03/25 02:09:21;;;;;;;15.80;3.58;;;7.30;99.90;;;;;;5067332;28;20581;-40
2023/03/25 02:11:47;;;;;;;12.48;3.03;;;8.10;99.90;;;;;;5068638;28;20712;-40
2023/03/25 02:14:18;;;;;;;12.13;2.70;;;8.10;99.90;;;;;;5067962;28;20097;-40
2023/03/25 02:17:15;;;;;;;13.77;3.88;;;7.40;99.90;;;;;;5069023;28;20039;-39
2023/03/25 02:19:53;;;;;;;19.13;2.63;;;7.30;99.90;;;;;;5068746;28;20464;-40
2023/03/25 02:22:36;;;;;;;13.75;3.28;;;7.30;99.90;;;;;;5068889;28;20090;-39
2023/03/25 02:25:03;;;;;;;14.38;2.53;;;7.40;99.90;;;;;;5068420;28;20055;-40
2023/03/25 02:27:46;;;;;;;11.10;2.60;;;8.30;99.90;;;;;;5068209;28;20032;-40
2023/03/25 02:30:30;;;;;;;16.25;3.03;;;7.30;99.90;;;;;;5068381;28;20055;-40
2023/03/25 02:33:04;;;;;;;20.63;3.90;;;7.30;99.90;;;;;;5068563;28;20048;-40
2023/03/25 02:36:03;;;;;;;18.85;2.90;;;8.00;99.90;;;;;;5068124;28;20040;-40
2023/03/25 02:38:52;;;;;;;15.45;2.90;;;7.30;99.90;;;;;;5068547;28;20177;-39
2023/03/25 02:41:38;;;;;;;19.38;2.60;;;7.30;99.90;;;;;;5068325;28;20869;-40
2023/03/25 02:44:15;;;;;;;21.80;2.53;;;7.60;99.90;;;;;;5067394;28;20052;-40
2023/03/25 02:46:48;;;;;;;20.25;3.88;;;7.60;99.90;;;;;;5068074;28;20039;-40
2023/03/25 02:49:32;;;;;;;14.70;3.30;;;7.50;99.90;;;;;;5067874;28;20052;-39
2023/03/25 02:52:07;;;;;;;17.63;3.45;;;8.60;99.90;;;;;;5067641;28;20084;-40
2023/03/25 02:54:35;;;;;;;13.35;3.45;;;7.70;99.90;;;;;;5067766;28;20471;-40
2023/03/25 02:57:04;;;;;;;23.30;3.70;;;7.10;99.90;;;;;;5067913;28;20115;-40
2023/03/25 02:59:32;;;;;;;15.63;3.72;;;7.20;99.90;;;;;;5067746;28;20036;-39
2023/03/25 03:02:00;;;;;;;13.00;3.42;;;7.80;99.90;;;;;;5067478;28;20063;-40
2023/03/25 03:04:26;;;;;;;23.02;5.90;;;8.10;99.90;;;;;;5067608;28;20060;-39
2023/03/25 03:06:54;;;;;;;19.60;3.53;;;7.60;99.90;;;;;;5068119;28;20048;-39
2023/03/25 03:09:43;;;;;;;14.45;4.03;;;7.40;99.90;;;;;;5067285;28;20394;-40
2023/03/25 03:12:33;;;;;;;20.50;4.22;;;7.40;99.90;;;;;;5067105;28;20036;-39
2023/03/25 03:15:18;;;;;;;15.07;2.60;;;7.60;99.90;;;;;;5066313;28;20047;-40
2023/03/25 03:18:02;;;;;;;22.27;4.30;;;7.10;99.90;;;;;;5066703;28;20237;-40
2023/03/25 03:20:52;;;;;;;17.38;3.50;;;7.20;99.90;;;;;;5066167;28;20036;-40
2023/03/25 03:23:32;;;;;;;25.60;4.57;;;7.00;99.90;;;;;;5066602;28;20119;-40
2023/03/25 03:26:25;;;;;;;20.20;4.55;;;7.10;99.90;;;;;;5066091;28;20063;-40
2023/03/25 03:28:54;;;;;;;;;;;7.10;99.90;;;;;;5066611;28;20076;-40
2023/03/25 03:31:28;;;;;;;22.85;3.25;;;7.10;99.90;;;;;;5065919;28;20270;-39
2023/03/25 03:34:01;;;;;;;16.65;3.00;;;7.30;99.90;;;;;;5066097;28;20071;-40
2023/03/25 03:36:35;;;;;;;19.90;4.72;;;7.10;99.90;;;;;;5066200;28;20044;-40
2023/03/25 03:39:08;;;;;;;13.75;2.97;;;7.50;99.90;;;;;;5048485;28;20059;-40
2023/03/25 03:41:37;;;;;;;18.05;3.42;;;8.00;99.90;;;;;;5066287;28;20040;-39
2023/03/25 03:44:07;;;;;;;15.00;3.25;;;7.00;99.90;;;;;;5065760;28;20083;-40
2023/03/25 03:46:38;;;;;;;19.17;3.50;;;6.80;99.90;;;;;;5065899;28;20055;-40
2023/03/25 03:49:14;;;;;;;27.80;3.88;;;7.70;99.90;;;;;;5066521;28;20621;-40
2023/03/25 03:51:55;;;;;;;20.23;4.15;;;7.30;99.90;;;;;;5065803;28;20550;-39
2023/03/25 03:54:43;;;;;;;15.23;3.58;;;7.10;99.90;;;;;;5066664;28;20039;-40
2023/03/25 03:57:25;;;;;;;21.83;3.75;;;7.00;99.90;;;;;;5055065;28;20569;-40
2023/03/25 04:00:08;;;;;;;21.33;3.58;;;7.40;99.90;;;;;;5066747;28;20082;-40
2023/03/25 04:02:34;;;;;;;18.80;4.20;;;7.10;99.90;;;;;;5065749;28;20056;-40
2023/03/25 04:05:00;;;;;;;23.50;5.32;;;8.10;99.90;;;;;;5066488;28;20048;-39
2023/03/25 04:08:01;;;;;;;25.60;3.40;;;8.90;99.90;;;;;;5065645;28;20052;-39
2023/03/25 04:10:28;;;;;;;16.02;2.55;;;;;;;;;;5065687;28;20564;-39
2023/03/25 04:12:57;;;;;;;14.88;3.25;;;7.10;99.90;;;;;;5066477;28;20056;-40
2023/03/25 04:15:22;;;;;;;21.17;5.05;;;7.70;99.90;;;;;;5065602;28;20044;-42
2023/03/25 04:17:49;;;;;;;22.73;4.35;;;7.30;99.90;;;;;;5065521;28;20371;-40
2023/03/25 04:20:22;;;;;;;20.08;4.15;;;7.30;99.90;;;;;;5065673;28;20063;-40
2023/03/25 04:22:50;;;;;;;22.80;3.88;;;7.10;99.90;;;;;;5065085;28;20090;-40
2023/03/25 04:25:17;;;;;;;23.35;4.20;;;7.30;99.90;;;;;;5065534;28;20169;-40
2023/03/25 04:27:47;;;;;;;23.73;4.03;;;6.70;99.90;;;;;;5064997;28;20390;-40
2023/03/25 04:30:16;;;;;;;21.63;3.85;;;7.30;99.90;;;;;;5047458;28;20120;-40
2023/03/25 04:32:45;;;;;;;20.48;3.47;;;7.10;99.90;;;;;;5068765;28;20394;-40
2023/03/25 04:35:13;;;;;;;21.85;4.40;;;7.60;99.90;;;;;;5069500;28;20041;-40
2023/03/25 04:37:40;;;;;;;22.15;6.28;;;7.40;99.90;;;;;;5069475;28;20048;-40
2023/03/25 04:40:08;;;;;;;17.08;4.60;;;7.10;99.90;;;;;;5069752;28;20842;-40
2023/03/25 04:42:36;;;;;;;15.43;3.75;;;7.00;99.90;;;;;;5069873;28;20446;-40
2023/03/25 04:45:04;;;;;;;19.30;4.18;;;7.40;99.90;;;;;;5069005;28;20566;-40
2023/03/25 04:47:31;;;;;;;23.73;4.72;;;7.10;99.90;;;;;;5070173;28;20119;-40
2023/03/25 04:49:56;;;;;;;16.02;4.22;;;6.60;99.90;;;;;;5069970;28;20497;-40
2023/03/25 04:52:22;;;;;;;20.83;5.28;;;7.40;99.90;;;;;;5069901;28;20094;-40
2023/03/25 04:54:48;;;;;;;23.17;5.93;;;7.40;99.90;;;;;;5069717;28;20151;-40
2023/03/25 04:57:14;;;;;;;16.65;3.75;;;;;;;;;;5069786;28;20128;-40
2023/03/25 04:59:40;;;;;;;19.20;5.53;;;7.00;99.90;;;;;;5069717;28;20347;-40
2023/03/25 05:02:06;;;;;;;23.17;5.30;;;8.70;99.90;;;;;;5051685;28;20123;-40
2023/03/25 05:04:32;;;;;;;25.63;5.15;;;7.10;99.90;;;;;;5069197;28;20064;-40
2023/03/25 05:06:58;;;;;;;20.73;4.13;;;;;;;;;;5069239;28;20132;-40
2023/03/25 05:09:24;;;;;;;19.13;4.47;;;7.40;99.90;;;;;;5069713;28;20087;-40
2023/03/25 05:11:51;;;;;;;28.42;5.30;;;7.30;99.90;;;;;;5069336;28;20079;-40
2023/03/25 05:14:19;;;;;;;20.40;4.95;;;8.50;99.90;;;;;;5068628;28;20409;-40
2023/03/25 05:16:46;;;;;;;30.33;6.18;;;7.30;99.90;;;;;;5068849;28;20079;-40
2023/03/25 05:19:13;;;;;;;21.10;4.88;;;7.10;99.90;;;;;;5068606;28;20143;-41
2023/03/25 05:21:41;;;;;;;24.23;4.88;;;7.30;99.90;;;;;;5068872;28;20044;-40
2023/03/25 05:24:12;;;;;;;15.68;4.05;;;8.50;99.90;;;;;;5068499;28;20445;-40
2023/03/25 05:26:40;;;;;;;22.13;4.38;;;8.00;99.90;;;;;;5068553;28;20102;-39
2023/03/25 05:29:15;;;;;;;24.77;4.82;;;7.60;99.90;;;;;;5051145;28;20557;-40
2023/03/25 05:31:47;;;;;;;22.77;5.47;;;7.60;99.90;;;;;;5068428;28;20090;-39
2023/03/25 05:34:13;;;;;;;17.88;4.68;;;7.30;99.90;;;;;;5069078;28;20045;-40
2023/03/25 05:36:39;;;;;;;21.45;4.32;;;8.00;99.90;;;;;;5068307;28;20043;-40
2023/03/25 05:39:04;;;;;;;22.45;3.80;;;7.30;99.90;;;;;;5068329;28;20040;-40
2023/03/25 05:41:37;;;;;;;19.17;3.83;;;8.80;99.90;;;;;;5068355;28;20466;-40
2023/03/25 05:44:08;;;;;;;18.48;4.25;;;7.00;99.90;;;;;;5068408;28;20040;-40
2023/03/25 05:46:33;;;;;;;19.45;4.13;;;7.30;99.90;;;;;;5067885;28;20045;-40
2023/03/25 05:49:02;;;;;;;23.88;4.68;;;7.70;99.90;;;;;;5049497;28;20055;-40
2023/03/25 05:51:32;;;;;;;17.67;4.05;;;8.80;99.90;;;;;;5067908;28;20047;-40
2023/03/25 05:53:58;;;;;;;22.33;3.88;;;7.20;99.90;;;;;;5067505;28;20052;-40
2023/03/25 05:56:25;;;;;;;16.23;3.03;;;7.20;99.90;;;;;;5067654;28;20510;-40
2023/03/25 05:58:52;;;;;;;18.00;3.53;;;7.90;99.90;;;;;;5067606;28;20055;-40
2023/03/25 06:01:20;;;;;;;16.30;3.35;;;7.10;99.90;;;;;;5068027;28;20482;-39
2023/03/25 06:03:46;;;;;;;19.75;3.33;;;8.20;99.90;;;;;;5067394;28;20102;-40
2023/03/25 06:06:13;;;;;;;24.60;4.63;;;7.00;99.90;;;;;;5068104;28;20433;-40
2023/03/25 06:08:49;;;;;;;25.05;4.20;;;7.80;99.90;;;;;;5067482;28;20032;-40
2023/03/25 06:11:16;;;;;;;25.80;4.88;;;7.10;99.90;;;;;;5067816;28;20482;-40
2023/03/25 06:13:48;;;;;;;28.50;4.68;;;7.40;99.90;;;;;;5067963;28;20136;-40
2023/03/25 06:16:19;;;;;;;22.42;4.32;;;7.20;99.90;;;;;;5049904;28;20093;-40
2023/03/25 06:18:54;;;;;;;22.85;6.07;;;7.10;99.90;;;;;;5067709;28;20094;-39
2023/03/25 06:21:21;;;;;;;18.05;4.60;;;8.10;99.90;;;;;;5068049;28;20051;-40
2023/03/25 06:23:48;;;;;;;18.88;5.10;;;8.10;99.90;;;;;;5067671;28;20044;-40
2023/03/25 06:26:18;;;;;;;21.52;4.18;;;8.30;99.90;;;;;;5068099;28;20040;-40
2023/03/25 06:28:44;;;;;;;19.67;4.30;;;8.40;99.90;;;;;;5067814;28;20068;-40
2023/03/25 06:31:19;;;;;;;18.20;4.60;;;8.10;99.90;;;;;;5067688;28;20040;-40
2023/03/25 06:33:46;;;;;;;21.23;4.60;;;7.00;99.90;;;;;;5067403;28;20051;-40
2023/03/25 06:36:17;;;;;;;22.10;3.92;;;7.40;99.90;;;;;;5067522;28;20063;-40
2023/03/25 06:38:44;;;;;;;23.58;4.85;;;8.80;99.90;;;;;;5068012;28;20055;-40
2023/03/25 06:41:10;;;;;;;21.38;3.88;;;;;;;;;;5067993;28;20123;-40
2023/03/25 06:43:36;;;;;;;21.67;4.05;;;8.70;99.90;;;;;;5067881;28;20101;-40
2023/03/25 06:46:01;;;;;;;21.02;3.95;;;7.40;99.90;;;;;;5066971;28;20045;-40
2023/03/25 06:48:27;;;;;;;18.75;5.10;;;7.80;99.90;;;;;;5067490;28;20044;-40
2023/03/25 06:50:53;;;;;;;16.58;3.50;;;7.50;99.90;;;;;;5067218;28;20049;-40
2023/03/25 06:53:19;;;;;;;22.17;4.35;;;7.40;99.90;;;;;;5066472;28;20051;-39
2023/03/25 06:55:45;;;;;;;24.15;4.22;;;;;;;;;;5066778;28;20075;-40
2023/03/25 06:58:11;;;;;;;18.63;4.45;;;7.10;99.90;;;;;;5066583;28;20052;-40
2023/03/25 07:00:37;;;;;;;29.45;4.25;;;7.40;99.90;;;;;;5066731;28;20040;-40
2023/03/25 07:03:03;;;;;;;13.38;2.88;;;7.50;99.90;;;;;;5066367;28;20057;-39
2023/03/25 07:05:29;;;;;;;20.48;4.38;;;7.20;99.90;;;;;;5066656;28;20040;-40
2023/03/25 07:07:54;;;;;;;21.17;3.80;;;7.90;99.90;;;;;;5066582;28;20119;-40
2023/03/25 07:10:20;;;;;;;22.38;4.75;;;;;;;;;;5066589;28;20044;-40
2023/03/25 07:12:46;;;;;;;30.38;4.70;;;7.50;99.90;;;;;;5066425;28;20487;-40
2023/03/25 07:15:12;;;;;;;23.23;4.40;;;8.50;99.90;;;;;;5065936;28;20041;-40
2023/03/25 07:17:38;;;;;;;24.50;5.10;;;7.30;99.90;;;;;;5066007;28;20048;-40
2023/03/25 07:20:05;;;;;;;20.30;3.22;;;7.40;99.90;;;;;;5065851;28;20051;-40
2023/03/25 07:22:31;;;;;;;17.35;4.03;;;8.00;99.90;;;;;;5066194;28;20048;-40
2023/03/25 07:24:57;;;;;;;32.22;4.22;;;7.70;99.90;;;;;;5066295;28;20052;-40
2023/03/25 07:27:24;;;;;;;21.02;4.85;;;8.10;99.90;;;;;;5066082;28;20069;-40
2023/03/25 07:29:50;;;;;;;22.25;3.22;;;8.00;99.90;;;;;;5066293;28;20083;-40
2023/03/25 07:32:15;;;;;;;33.20;3.50;;;7.90;99.90;;;;;;5065303;28;20082;-40
2023/03/25 07:34:41;;;;;;;27.92;4.18;;;7.80;99.90;;;;;;5066629;28;20048;-40
2023/03/25 07:37:07;;;;;;;22.90;3.50;;;8.50;99.90;;;;;;5066050;28;20090;-40
2023/03/25 07:39:33;;;;;;;28.10;3.45;;;8.40;99.90;;;;;;5066152;28;20048;-40
2023/03/25 07:41:59;;;;;;;27.80;5.38;;;8.30;99.90;;;;;;5065645;28;20494;-40
2023/03/25 07:44:25;;;;;;;19.40;2.92;;;8.30;99.90;;;;;;5065970;28;20479;-40
2023/03/25 07:46:50;;;;;;;29.30;4.97;;;7.90;99.90;;;;;;5065448;28;20066;-40
2023/03/25 07:49:16;;;;;;;26.27;4.30;;;8.20;99.90;;;;;;5065620;28;20049;-40
2023/03/25 07:51:42;;;;;;;22.30;3.85;;;7.80;99.90;;;;;;5065832;28;20447;-40
2023/03/25 07:54:09;;;;;;;36.85;3.67;;;;;;;;;;5065226;28;20604;-39
2023/03/25 07:56:34;;;;;;;22.35;3.50;;;7.30;99.90;;;;;;5066668;28;20413;-39
2023/03/25 07:59:00;;;;;;;20.73;3.15;;;;;;;;;;5066024;28;20052;-40
2023/03/25 08:01:26;;;;;;;28.30;4.93;;;7.70;99.90;;;;;;5066532;28;20126;-39
2023/03/25 08:03:52;;;;;;;29.83;3.10;;;7.70;99.90;;;;;;5065412;28;20060;-40
2023/03/25 08:06:18;;;;;;;22.13;3.10;;;7.70;99.90;;;;;;5064373;28;20056;-40
2023/03/25 08:08:43;;;;;;;15.88;2.75;;;7.80;99.90;;;;;;5065647;28;20083;-40
2023/03/25 08:11:10;;;;;;;13.32;1.75;;;7.70;99.90;;;;;;5065324;28;20079;-39
2023/03/25 08:13:35;;;;;;;24.13;2.80;;;7.80;99.90;;;;;;5065234;28;20052;-40
2023/03/25 08:16:01;;;;;;;18.75;3.83;;;7.70;99.90;;;;;;5065451;28;20110;-40
2023/03/25 08:18:27;;;;;;;14.25;2.25;;;8.30;99.90;;;;;;5065770;28;20048;-40
2023/03/25 08:20:53;;;;;;;13.68;1.40;;;8.20;99.90;;;;;;5065676;28;20044;-40
2023/03/25 08:23:21;;;;;;;14.20;1.83;;;8.50;99.90;;;;;;5064773;28;20063;-40
2023/03/25 08:25:48;;;;;;;19.20;3.08;;;7.70;99.90;;;;;;5065284;28;20045;-40
2023/03/25 08:28:21;;;;;;;16.58;2.28;;;8.80;99.90;;;;;;5065543;28;20854;-39
2023/03/25 08:30:48;;;;;;;19.13;1.52;;;7.90;99.90;;;;;;5065484;28;20041;-39
2023/03/25 08:33:15;;;;;;;15.88;1.77;;;7.80;99.90;;;;;;5065004;28;20047;-39
2023/03/25 08:35:41;;;;;;;19.63;2.10;;;7.90;99.90;;;;;;5064828;28;20049;-40
2023/03/25 08:38:08;;;;;;;17.40;2.17;;;7.60;99.90;;;;;;5065142;28;20106;-40
2023/03/25 08:40:35;;;;;;;23.38;2.40;;;7.30;99.90;;;;;;5064933;28;20082;-40
2023/03/25 08:43:03;;;;;;;19.48;2.20;;;7.70;99.90;;;;;;5065564;28;20047;-40
2023/03/25 08:45:31;;;;;;;19.48;3.80;;;8.20;99.90;;;;;;5065463;28;20045;-40
2023/03/25 08:47:57;;;;;;;18.58;2.58;;;8.00;99.90;;;;;;5065801;28;20492;-40
2023/03/25 08:50:23;;;;;;;22.85;2.03;;;7.60;99.90;;;;;;5065511;28;20048;-40
2023/03/25 08:52:52;;;;;;;17.85;2.92;;;;;;;;;;5065786;28;20061;-40
2023/03/25 08:55:18;;;;;;;26.00;2.40;;;;;;;;;;5065334;28;20083;-40
2023/03/25 08:57:44;;;;;;;24.48;3.40;;;8.50;99.90;;;;;;5065746;28;20044;-40
2023/03/25 09:00:13;;;;;;;26.45;2.88;;;8.30;99.90;;;;;;5065051;28;20051;-40
2023/03/25 09:02:41;;;;;;;20.38;2.40;;;8.80;99.90;;;;;;5065330;28;20061;-40
2023/03/25 09:05:11;;;;;;;22.52;3.65;;;9.20;99.90;;;;;;5064919;28;20044;-40
2023/03/25 09:07:38;;;;;;;22.65;3.53;;;9.00;99.90;;;;;;5065158;28;20479;-40
2023/03/25 09:10:06;;;;;;;16.77;2.45;;;9.20;99.90;;;;;;5065568;28;20048;-40
2023/03/25 09:12:32;;;;;;;31.08;2.78;;;8.30;99.90;;;;;;5065184;28;20036;-40
2023/03/25 09:14:58;;;;;;;19.05;2.75;;;;;;;;;;5065161;28;20052;-40
2023/03/25 09:17:24;;;;;;;24.20;3.05;;;8.60;99.90;;;;;;5066393;28;20040;-40
2023/03/25 09:19:50;;;;;;;26.35;2.72;;;8.50;99.90;;;;;;5069210;28;20045;-40
2023/03/25 09:22:16;;;;;;;20.60;2.95;;;8.70;99.90;;;;;;5068563;28;20048;-40
2023/03/25 09:24:41;;;;;;;26.33;3.97;;;9.10;99.90;;;;;;5068942;28;20055;-40
2023/03/25 09:27:08;;;;;;;25.73;3.47;;;8.90;99.90;;;;;;5068571;28;20048;-40
2023/03/25 09:29:33;;;;;;;23.90;3.00;;;8.80;99.90;;;;;;5068454;28;20051;-40
2023/03/25 09:32:00;;;;;;;16.05;2.80;;;9.40;99.90;;;;;;5068514;28;20040;-40
2023/03/25 09:34:27;;;;;;;18.90;3.72;;;9.30;99.90;;;;;;5067527;28;20186;-40
2023/03/25 09:36:56;;;;;;;15.55;2.05;;;9.60;99.90;;;;;;5068584;28;20109;-40
2023/03/25 09:39:21;;;;;;;18.58;2.28;;;9.40;99.90;;;;;;5068332;28;20398;-40
2023/03/25 09:42:02;;;;;;;13.27;1.83;;;9.50;99.90;;;;;;5068640;28;20045;-40
2023/03/25 09:44:57;;;;;;;22.42;3.33;;;8.90;99.90;;;;;;5068607;28;20070;-40
2023/03/25 09:47:24;;;;;;;15.05;1.88;;;9.20;99.90;;;;;;5068328;28;20082;-40
2023/03/25 09:49:55;;;;;;;16.70;1.90;;;9.80;99.90;;;;;;5068551;28;20036;-40
2023/03/25 09:52:35;;;;;;;16.70;2.13;;;9.50;99.90;;;;;;5068129;28;20039;-40
2023/03/25 09:55:12;;;;;;;19.17;1.88;;;9.70;99.90;;;;;;5068269;28;20044;-40
2023/03/25 09:57:48;;;;;;;17.15;1.90;;;10.20;99.90;;;;;;5068105;28;20056;-40
2023/03/25 10:00:21;;;;;;;21.23;2.25;;;9.70;99.90;;;;;;5067709;28;20533;-40
2023/03/25 10:03:17;;;;;;;17.17;1.85;;;9.30;99.90;;;;;;5067776;28;20527;-40
2023/03/25 10:06:05;;;;;;;17.05;2.78;;;9.20;99.90;;;;;;5068024;28;20052;-40
2023/03/25 10:08:54;;;;;;;10.15;1.38;;;8.90;99.90;;;;;;5049924;28;20382;-40
2023/03/25 10:11:38;;;;;;;11.15;1.00;;;8.70;99.90;;;;;;5068024;28;20047;-40
2023/03/25 10:14:07;;;;;;;13.52;1.50;;;9.30;99.90;;;;;;5067816;28;20056;-40
2023/03/25 10:16:52;;;;;;;17.75;2.72;;;8.90;99.90;;;;;;5067990;28;20079;-40
2023/03/25 10:19:56;;;;;;;14.05;1.90;;;8.50;99.90;;;;;;5068380;28;20123;-40
2023/03/25 10:22:46;;;;;;;14.52;2.85;;;8.50;99.90;;;;;;4986138;28;20050;-40
2023/03/25 10:25:23;;;;;;;15.48;1.88;;;8.50;99.90;;;;;;4986057;28;20053;-40
2023/03/25 10:27:51;;;;;;;19.27;1.88;;;9.00;99.90;;;;;;5042978;28;20059;-40
2023/03/25 10:30:29;;;;;;;28.15;4.15;;;9.10;99.90;;;;;;5065989;28;20483;-40
2023/03/25 10:33:00;;;;;;;19.35;2.92;;;8.60;99.90;;;;;;5067139;28;20040;-40
2023/03/25 10:35:29;;;;;;;23.52;3.95;;;9.10;99.90;;;;;;5066925;28;20090;-40
2023/03/25 10:38:05;;;;;;;22.45;2.28;;;9.30;99.90;;;;;;5067562;28;20051;-40
2023/03/25 10:40:52;;;;;;;20.48;2.28;;;9.40;99.90;;;;;;5067305;28;20049;-40
2023/03/25 10:43:40;;;;;;;15.60;2.10;;;9.50;99.90;;;;;;5067212;28;20506;-40
2023/03/25 10:46:24;;;;;;;16.45;1.98;;;9.10;99.90;;;;;;5067930;28;20075;-40
2023/03/25 10:48:50;;;;;;;13.48;1.80;;;9.10;99.90;;;;;;5067827;28;20045;-40
2023/03/25 10:51:25;;;;;;;17.00;2.30;;;9.00;99.90;;;;;;5067702;28;20047;-40
2023/03/25 10:53:52;;;;;;;23.00;2.83;;;11.40;99.90;;;;;;5067288;28;20067;-40
2023/03/25 10:56:35;;;;;;;18.98;1.90;;;9.30;99.90;;;;;;5067640;28;20505;-40
2023/03/25 10:59:10;;;;;;;20.88;3.65;;;8.80;99.90;;;;;;5067442;28;20552;-40
2023/03/25 11:01:39;;;;;;;20.85;2.83;;;9.60;99.90;;;;;;5067543;28;20140;-40
2023/03/25 11:04:15;;;;;;;15.88;2.72;;;9.40;99.90;;;;;;5048673;28;20060;-40
2023/03/25 11:06:47;;;;;;;18.33;2.42;;;9.30;99.90;;;;;;5067243;28;20070;-40
2023/03/25 11:09:33;;;;;;;27.13;2.60;;;9.90;99.90;;;;;;5067630;28;20122;-40
2023/03/25 11:12:00;;;;;;;18.17;2.25;;;9.70;99.90;;;;;;5067826;28;20046;-40
2023/03/25 11:14:28;;;;;;;15.32;2.10;;;9.30;99.90;;;;;;5067139;28;20044;-40
2023/03/25 11:16:58;;;;;;;19.98;2.00;;;10.20;99.90;;;;;;5067099;28;20036;-39
2023/03/25 11:19:39;;;;;;;11.75;1.77;;;9.40;99.90;;;;;;5067307;28;20242;-40
2023/03/25 11:22:21;;;;;;;13.43;2.00;;;9.30;99.90;;;;;;5067871;28;20704;-40
2023/03/25 11:24:53;;;;;;;13.43;2.00;;;9.50;99.90;;;;;;5067402;28;20047;-40
2023/03/25 11:27:22;;;;;;;15.33;1.90;;;9.30;99.90;;;;;;5067656;28;20115;-40
2023/03/25 11:29:59;;;;;;;9.80;1.15;;;9.50;99.90;;;;;;5066807;28;20045;-40
2023/03/25 11:32:38;;;;;;;12.07;1.38;;;9.20;99.90;;;;;;5067270;28;20064;-39
2023/03/25 11:35:16;;;;;;;17.20;2.00;;;9.40;99.90;;;;;;5066440;28;20060;-40
2023/03/25 11:37:45;;;;;;;11.15;1.58;;;9.20;99.90;;;;;;5065769;28;20082;-39
2023/03/25 11:40:16;;;;;;;21.05;1.73;;;9.10;99.90;;;;;;5065456;28;20055;-40
2023/03/25 11:42:48;;;;;;;14.45;2.03;;;9.10;99.90;;;;;;5065774;28;20059;-40
2023/03/25 11:45:37;;;;;;;13.68;1.88;;;9.80;99.90;;;;;;5066536;28;20044;-39
2023/03/25 11:48:15;;;;;;;13.27;1.52;;;9.60;99.90;;;;;;5066464;28;20103;-40
2023/03/25 11:50:53;;;;;;;19.60;2.15;;;10.30;99.90;;;;;;5065479;28;20463;-40
2023/03/25 11:53:20;;;;;;;16.10;3.53;;;10.50;99.90;;;;;;5066113;28;20044;-40
2023/03/25 11:55:53;;;;;;;25.67;2.47;;;9.80;99.90;;;;;;5065127;28;20439;-40
2023/03/25 11:58:24;;;;;;;16.33;1.85;;;10.00;99.90;;;;;;5065820;28;20044;-40
2023/03/25 12:00:59;;;;;;;14.60;2.47;;;10.80;99.90;;;;;;5066040;28;20095;-40
2023/03/25 12:03:29;;;;;;;13.73;2.08;;;10.30;99.90;;;;;;5066141;28;20287;-40
2023/03/25 12:06:05;;;;;;;16.48;1.98;;;10.10;99.90;;;;;;5065119;28;20055;-40
2023/03/25 12:08:47;;;;;;;11.02;1.15;;;9.90;99.90;;;;;;5065640;28;20048;-40
2023/03/25 12:11:34;;;;;;;12.25;0.88;;;9.20;99.90;;;;;;5065024;28;20044;-40
2023/03/25 12:14:12;;;;;;;10.63;1.20;;;9.80;99.90;;;;;;5064987;28;20049;-40
2023/03/25 12:16:51;;;;;;;16.45;2.03;;;9.80;99.90;;;;;;5064935;28;20645;-39
2023/03/25 12:19:33;;;;;;;13.82;1.45;;;10.10;99.90;;;;;;5064726;28;20426;-39
2023/03/25 12:22:09;;;;;;;13.60;2.10;;;9.60;99.90;;;;;;5064669;28;20052;-40
2023/03/25 12:24:58;;;;;;;12.35;2.95;;;9.60;99.90;;;;;;5064945;28;20048;-40
2023/03/25 12:28:15;;;;;;;12.40;1.23;;;9.70;99.90;;;;;;5065531;28;20098;-39
2023/03/25 12:31:03;;;;;;;11.10;1.80;;;9.90;99.90;;;;;;5029859;28;20182;-39
2023/03/25 12:33:49;;;;;;;8.07;1.42;;;10.10;99.90;;;;;;5064689;28;20086;-40
2023/03/25 12:36:27;;;;;;;9.93;0.85;;;10.20;99.90;;;;;;5064729;28;20135;-39
2023/03/25 12:39:16;;;;;;;10.82;1.13;;;10.50;99.90;;;;;;5064914;28;20044;-40
2023/03/25 12:42:07;;;;;;;12.75;2.40;;;10.50;99.90;;;;;;5064467;28;20076;-40
2023/03/25 12:44:45;;;;;;;12.95;0.93;;;9.80;99.90;;;;;;5047306;28;20076;-41
2023/03/25 12:47:13;;;;;;;13.57;1.27;;;10.30;99.90;;;;;;5062760;28;20040;-40
2023/03/25 12:49:45;;;;;;;8.73;0.98;;;10.20;99.90;;;;;;5063994;28;20483;-51
2023/03/25 12:52:31;;;;;;;11.35;1.58;;;10.10;99.90;;;;;;5065961;28;20044;-42
2023/03/25 12:55:34;;;;;;;8.45;1.38;;;9.80;99.90;;;;;;5069190;28;20045;-44
2023/03/25 12:58:18;;;;;;;9.70;1.15;;;10.00;99.90;;;;;;5068698;28;20102;-42
2023/03/25 13:01:05;;;;;;;9.70;1.10;;;10.10;99.90;;;;;;5068799;28;20040;-47
2023/03/25 13:03:49;;;;;;;10.55;1.23;;;10.10;99.90;;;;;;5048135;28;20096;-47
2023/03/25 13:06:52;;;;;;;11.45;1.40;;;10.30;99.90;;;;;;5065715;28;20395;-42
2023/03/25 13:09:26;;;;;;;8.05;1.65;;;10.40;99.90;;;;;;5048768;28;20453;-43
2023/03/25 13:12:24;;;;;;;8.98;1.98;;;10.40;99.90;;;;;;5066667;28;20055;-45
2023/03/25 13:15:06;;;;;;;7.28;0.98;;;10.20;99.90;;;;;;5039312;28;20052;-44